createdAt,value
2022-10-20T00:02:15.285Z,5.60
2022-10-20T00:04:42.034Z,5.50
2022-10-20T00:07:08.660Z,5.40
2022-10-20T00:09:35.230Z,5.40
2022-10-20T00:12:01.849Z,5.40
2022-10-20T00:14:28.437Z,5.40
2022-10-20T00:16:55.056Z,5.40
2022-10-20T00:19:21.661Z,5.30
2022-10-20T00:21:48.313Z,5.30
2022-10-20T00:24:14.881Z,5.40
2022-10-20T00:26:41.503Z,5.30
2022-10-20T00:29:08.241Z,5.40
2022-10-20T00:31:34.929Z,5.40
2022-10-20T00:34:01.621Z,5.40
2022-10-20T00:36:28.230Z,5.40
2022-10-20T00:39:00.146Z,5.40
2022-10-20T00:41:27.740Z,5.40
2022-10-20T00:44:01.068Z,5.40
2022-10-20T00:46:37.840Z,5.40
2022-10-20T00:49:17.777Z,5.40
2022-10-20T00:51:44.521Z,5.30
2022-10-20T00:54:17.185Z,5.30
2022-10-20T00:56:45.530Z,5.30
2022-10-20T00:59:16.568Z,5.30
2022-10-20T01:01:44.178Z,5.30
2022-10-20T01:04:11.361Z,5.30
2022-10-20T01:06:38.576Z,5.40
2022-10-20T01:09:06.090Z,5.30
2022-10-20T01:12:00.695Z,5.30
2022-10-20T01:14:55.327Z,5.30
2022-10-20T01:17:42.580Z,5.30
2022-10-20T01:20:45.661Z,5.30
2022-10-20T01:23:43.169Z,5.30
2022-10-20T01:26:40.792Z,5.30
2022-10-20T01:29:16.177Z,5.30
2022-10-20T01:31:52.945Z,5.30
2022-10-20T01:34:49.173Z,5.30
2022-10-20T01:37:52.751Z,5.30
2022-10-20T01:40:48.616Z,5.30
2022-10-20T01:43:20.033Z,5.30
2022-10-20T01:45:49.118Z,5.30
2022-10-20T01:48:19.806Z,5.20
2022-10-20T01:50:47.455Z,5.10
2022-10-20T01:53:14.621Z,5.00
2022-10-20T01:55:41.668Z,5.00
2022-10-20T01:58:15.768Z,4.90
2022-10-20T02:00:43.997Z,4.90
2022-10-20T02:03:35.097Z,4.90
2022-10-20T02:06:09.331Z,4.80
2022-10-20T02:08:52.337Z,4.80
2022-10-20T02:11:29.533Z,4.80
2022-10-20T02:13:58.132Z,4.80
2022-10-20T02:16:40.429Z,4.90
2022-10-20T02:19:08.939Z,4.80
2022-10-20T02:21:36.517Z,4.80
2022-10-20T02:24:06.417Z,4.80
2022-10-20T02:26:35.598Z,4.80
2022-10-20T02:29:09.673Z,4.70
2022-10-20T02:31:36.517Z,4.70
2022-10-20T02:34:03.875Z,4.70
2022-10-20T02:36:30.554Z,4.60
2022-10-20T02:38:57.209Z,4.60
2022-10-20T02:41:23.893Z,4.60
2022-10-20T02:43:50.506Z,4.60
2022-10-20T02:46:17.454Z,4.60
2022-10-20T02:48:44.405Z,4.60
2022-10-20T02:51:11.752Z,4.60
2022-10-20T02:53:38.559Z,4.60
2022-10-20T02:56:05.416Z,4.70
2022-10-20T02:58:32.098Z,4.70
2022-10-20T03:00:58.691Z,4.70
2022-10-20T03:03:25.406Z,4.70
2022-10-20T03:05:52.004Z,4.70
2022-10-20T03:08:18.801Z,4.60
2022-10-20T03:10:45.439Z,4.60
2022-10-20T03:13:12.331Z,4.60
2022-10-20T03:15:39.002Z,4.60
2022-10-20T03:18:05.587Z,4.60
2022-10-20T03:20:33.040Z,4.60
2022-10-20T03:23:00.047Z,4.60
2022-10-20T03:25:26.672Z,4.70
2022-10-20T03:27:53.263Z,4.70
2022-10-20T03:30:19.873Z,4.70
2022-10-20T03:32:46.473Z,4.70
2022-10-20T03:35:13.105Z,4.70
2022-10-20T03:37:39.839Z,4.70
2022-10-20T03:40:06.965Z,4.70
2022-10-20T03:42:33.833Z,4.70
2022-10-20T03:45:00.542Z,4.70
2022-10-20T03:47:27.048Z,4.60
2022-10-20T03:49:53.676Z,4.60
2022-10-20T03:52:20.287Z,4.60
2022-10-20T03:54:47.175Z,4.50
2022-10-20T03:57:16.125Z,4.50
2022-10-20T03:59:42.740Z,4.50
2022-10-20T04:02:23.129Z,4.50
2022-10-20T04:04:49.737Z,4.40
2022-10-20T04:07:16.328Z,4.50
2022-10-20T04:09:42.915Z,4.50
2022-10-20T04:12:09.511Z,4.50
2022-10-20T04:14:36.141Z,4.50
2022-10-20T04:17:04.029Z,4.50
2022-10-20T04:19:30.581Z,4.50
2022-10-20T04:21:57.147Z,4.60
2022-10-20T04:24:23.741Z,4.60
2022-10-20T04:29:21.874Z,4.60
2022-10-20T04:31:49.302Z,4.70
2022-10-20T04:34:16.151Z,4.70
2022-10-20T04:36:42.772Z,4.70
2022-10-20T04:39:09.362Z,4.70
2022-10-20T04:41:36.058Z,4.60
2022-10-20T04:44:02.869Z,4.60
2022-10-20T04:46:29.650Z,4.60
2022-10-20T04:48:59.171Z,4.70
2022-10-20T04:51:27.544Z,4.70
2022-10-20T04:53:54.451Z,4.70
2022-10-20T04:56:22.242Z,4.70
2022-10-20T04:58:53.922Z,4.70
2022-10-20T05:01:21.953Z,4.70
2022-10-20T05:03:48.622Z,4.70
2022-10-20T05:06:16.561Z,4.70
2022-10-20T05:08:46.427Z,4.70
2022-10-20T05:11:14.489Z,4.80
2022-10-20T05:13:41.320Z,4.70
2022-10-20T05:16:08.570Z,4.80
2022-10-20T05:18:35.739Z,4.80
2022-10-20T05:21:09.775Z,4.80
2022-10-20T05:23:37.307Z,4.80
2022-10-20T05:26:09.245Z,4.80
2022-10-20T05:28:35.844Z,4.80
2022-10-20T05:31:03.777Z,4.80
2022-10-20T05:33:30.698Z,4.80
2022-10-20T05:35:57.355Z,4.90
2022-10-20T05:38:23.932Z,4.90
2022-10-20T05:40:50.581Z,4.90
2022-10-20T05:43:17.544Z,4.80
2022-10-20T05:45:44.187Z,4.80
2022-10-20T05:48:11.083Z,4.80
2022-10-20T05:50:38.542Z,4.90
2022-10-20T05:53:05.186Z,4.90
2022-10-20T05:55:32.777Z,5.00
2022-10-20T05:57:59.397Z,5.10
2022-10-20T06:00:30.908Z,5.10
2022-10-20T06:02:57.888Z,5.10
2022-10-20T06:05:24.521Z,5.20
2022-10-20T06:07:54.110Z,5.30
2022-10-20T06:10:20.871Z,5.30
2022-10-20T06:12:47.444Z,5.40
2022-10-20T06:15:14.119Z,5.40
2022-10-20T06:17:40.712Z,5.40
2022-10-20T06:20:07.536Z,5.40
2022-10-20T06:22:34.507Z,5.50
2022-10-20T06:25:01.634Z,5.60
2022-10-20T06:27:28.183Z,5.60
2022-10-20T06:29:54.817Z,5.70
2022-10-20T06:32:21.441Z,5.80
2022-10-20T06:34:47.991Z,5.90
2022-10-20T06:37:14.564Z,6.00
2022-10-20T06:39:41.141Z,6.00
2022-10-20T06:42:11.020Z,6.10
2022-10-20T06:44:44.830Z,6.20
2022-10-20T06:47:11.425Z,6.20
2022-10-20T06:49:37.996Z,6.30
2022-10-20T06:52:04.849Z,6.30
2022-10-20T06:54:31.530Z,6.40
2022-10-20T06:56:58.178Z,6.50
2022-10-20T06:59:24.792Z,6.60
2022-10-20T07:01:52.779Z,6.60
2022-10-20T07:04:19.403Z,6.70
2022-10-20T07:06:47.102Z,6.70
2022-10-20T07:09:16.894Z,6.80
2022-10-20T07:11:44.052Z,6.80
2022-10-20T07:14:13.525Z,6.90
2022-10-20T07:16:40.176Z,6.90
2022-10-20T07:19:06.998Z,6.90
2022-10-20T07:21:36.609Z,7.00
2022-10-20T07:24:06.480Z,7.00
2022-10-20T07:26:35.406Z,7.10
2022-10-20T07:29:03.721Z,7.20
2022-10-20T07:31:42.576Z,7.20
2022-10-20T07:34:24.926Z,7.30
2022-10-20T07:36:53.113Z,7.30
2022-10-20T07:39:19.785Z,7.30
2022-10-20T07:41:47.887Z,7.40
2022-10-20T07:44:15.476Z,7.40
2022-10-20T07:46:42.088Z,7.40
2022-10-20T07:49:42.418Z,7.40
2022-10-20T07:51:55.623Z,7.40
2022-10-20T07:54:22.254Z,7.40
2022-10-20T07:56:49.428Z,7.40
2022-10-20T07:59:16.083Z,7.40
2022-10-20T08:01:43.052Z,7.40
2022-10-20T08:04:09.796Z,7.50
2022-10-20T08:06:36.455Z,7.50
2022-10-20T08:09:04.055Z,7.60
2022-10-20T08:11:30.728Z,7.60
2022-10-20T08:13:57.310Z,7.50
2022-10-20T08:16:30.478Z,7.50
2022-10-20T08:21:43.738Z,7.50
2022-10-20T08:24:10.395Z,7.60
2022-10-20T08:26:36.960Z,7.60
2022-10-20T08:29:03.573Z,7.70
2022-10-20T08:31:30.198Z,7.80
2022-10-20T08:33:57.228Z,7.80
2022-10-20T08:36:24.006Z,7.80
2022-10-20T08:38:50.632Z,7.90
2022-10-20T08:41:23.121Z,8.00
2022-10-20T08:43:52.244Z,8.10
2022-10-20T08:46:22.979Z,8.30
2022-10-20T08:48:50.271Z,8.60
2022-10-20T08:51:27.847Z,8.90
2022-10-20T08:53:57.062Z,9.20
2022-10-20T08:56:27.204Z,9.50
2022-10-20T08:58:54.221Z,9.80
2022-10-20T09:01:26.910Z,10.20
2022-10-20T09:04:00.030Z,10.50
2022-10-20T09:06:26.681Z,10.80
2022-10-20T09:08:55.093Z,10.90
2022-10-20T09:11:27.114Z,11.00
2022-10-20T09:13:54.376Z,11.10
2022-10-20T09:16:40.743Z,11.00
2022-10-20T09:19:22.845Z,11.10
2022-10-20T09:21:55.586Z,11.30
2022-10-20T09:24:22.892Z,11.40
2022-10-20T09:26:59.603Z,11.60
2022-10-20T09:29:37.942Z,11.60
2022-10-20T09:32:45.136Z,11.50
2022-10-20T09:35:20.905Z,11.50
2022-10-20T09:37:58.286Z,11.70
2022-10-20T09:40:26.410Z,11.80
2022-10-20T09:43:02.210Z,11.90
2022-10-20T09:45:31.690Z,12.00
2022-10-20T09:48:29.030Z,12.00
2022-10-20T09:50:58.623Z,11.90
2022-10-20T09:53:33.181Z,11.80
2022-10-20T09:56:00.248Z,11.70
2022-10-20T09:58:30.171Z,11.80
2022-10-20T10:01:03.473Z,11.90
2022-10-20T10:03:44.842Z,12.10
2022-10-20T10:06:28.429Z,12.40
2022-10-20T10:08:56.396Z,12.60
2022-10-20T10:11:34.029Z,12.60
2022-10-20T10:14:01.652Z,12.40
2022-10-20T10:16:39.651Z,12.50
2022-10-20T10:19:06.847Z,12.50
2022-10-20T10:21:51.225Z,12.70
2022-10-20T10:24:39.474Z,12.80
2022-10-20T10:27:19.305Z,12.80
2022-10-20T10:29:46.193Z,12.80
2022-10-20T10:32:27.426Z,12.80
2022-10-20T10:35:12.307Z,12.80
2022-10-20T10:37:42.138Z,12.90
2022-10-20T10:40:15.107Z,13.00
2022-10-20T10:42:53.826Z,13.00
2022-10-20T10:45:46.305Z,13.10
2022-10-20T10:48:57.291Z,13.20
2022-10-20T10:51:41.173Z,13.50
2022-10-20T10:54:17.057Z,13.50
2022-10-20T10:56:50.697Z,13.30
2022-10-20T10:59:23.508Z,13.20
2022-10-20T11:02:22.819Z,13.10
2022-10-20T11:05:24.493Z,13.00
2022-10-20T11:07:59.787Z,13.00
2022-10-20T11:10:33.137Z,13.40
2022-10-20T11:13:23.047Z,13.50
2022-10-20T11:16:07.979Z,13.80
2022-10-20T11:18:47.695Z,13.70
2022-10-20T11:21:44.025Z,13.50
2022-10-20T11:24:35.940Z,13.50
2022-10-20T11:27:15.630Z,13.80
2022-10-20T11:29:53.225Z,13.90
2022-10-20T11:35:21.963Z,13.90
2022-10-20T11:38:11.726Z,13.90
2022-10-20T11:40:40.488Z,13.70
2022-10-20T11:43:30.572Z,13.60
2022-10-20T11:46:04.781Z,13.60
2022-10-20T11:48:46.638Z,13.60
2022-10-20T11:51:34.357Z,13.70
2022-10-20T11:54:06.888Z,13.60
2022-10-20T11:56:51.503Z,13.50
2022-10-20T11:59:39.677Z,13.20
2022-10-20T12:02:47.011Z,13.00
2022-10-20T12:05:39.533Z,12.80
2022-10-20T12:08:30.565Z,12.70
2022-10-20T12:11:16.328Z,12.70
2022-10-20T12:14:00.263Z,12.80
2022-10-20T12:16:51.806Z,12.90
2022-10-20T12:19:27.264Z,13.00
2022-10-20T12:21:59.796Z,13.00
2022-10-20T12:24:52.404Z,13.10
2022-10-20T12:27:24.496Z,13.20
2022-10-20T12:30:00.317Z,13.30
2022-10-20T12:33:09.280Z,13.50
2022-10-20T12:35:59.132Z,13.70
2022-10-20T12:38:26.945Z,13.80
2022-10-20T12:40:57.927Z,14.00
2022-10-20T12:43:28.787Z,14.10
2022-10-20T12:46:05.465Z,14.20
2022-10-20T12:48:35.190Z,14.20
2022-10-20T12:51:06.042Z,14.20
2022-10-20T12:53:33.101Z,14.20
2022-10-20T12:56:08.882Z,14.30
2022-10-20T12:58:59.854Z,14.40
2022-10-20T13:01:28.476Z,14.30
2022-10-20T13:03:55.055Z,14.20
2022-10-20T13:06:26.167Z,14.30
2022-10-20T13:09:04.962Z,14.10
2022-10-20T13:11:37.915Z,14.00
2022-10-20T13:14:13.611Z,14.20
2022-10-20T13:16:50.806Z,14.20
2022-10-20T13:19:32.440Z,14.20
2022-10-20T13:21:59.806Z,14.20
2022-10-20T13:24:32.383Z,14.10
2022-10-20T13:27:04.064Z,14.30
2022-10-20T13:29:36.402Z,14.40
2022-10-20T13:35:04.042Z,14.30
2022-10-20T13:37:39.415Z,14.30
2022-10-20T13:40:27.672Z,14.20
2022-10-20T13:43:07.802Z,14.20
2022-10-20T13:45:39.443Z,14.20
2022-10-20T13:48:31.235Z,14.20
2022-10-20T13:51:05.846Z,14.20
2022-10-20T13:53:38.234Z,14.20
2022-10-20T13:56:16.941Z,14.30
2022-10-20T13:59:44.639Z,14.40
2022-10-20T14:02:25.454Z,14.40
2022-10-20T14:05:19.301Z,14.40
2022-10-20T14:07:53.174Z,14.50
2022-10-20T14:10:38.791Z,14.50
2022-10-20T14:13:17.096Z,14.30
2022-10-20T14:15:50.857Z,14.00
2022-10-20T14:18:29.868Z,13.80
2022-10-20T14:21:14.364Z,13.60
2022-10-20T14:23:45.589Z,13.50
2022-10-20T14:26:18.803Z,13.40
2022-10-20T14:28:49.659Z,13.30
2022-10-20T14:31:16.809Z,13.20
2022-10-20T14:33:45.624Z,13.20
2022-10-20T14:36:33.543Z,13.10
2022-10-20T14:39:01.166Z,13.00
2022-10-20T14:41:33.387Z,13.00
2022-10-20T14:44:08.522Z,12.90
2022-10-20T14:46:44.926Z,12.90
2022-10-20T14:49:31.325Z,12.90
2022-10-20T14:52:03.426Z,12.90
2022-10-20T14:54:36.315Z,12.80
2022-10-20T14:57:09.594Z,12.90
2022-10-20T14:59:49.574Z,12.80
2022-10-20T15:02:23.186Z,12.80
2022-10-20T15:04:53.557Z,12.70
2022-10-20T15:07:34.065Z,12.70
2022-10-20T15:10:08.556Z,12.70
2022-10-20T15:12:42.754Z,12.70
2022-10-20T15:15:12.451Z,12.70
2022-10-20T15:17:48.422Z,12.60
2022-10-20T15:20:37.371Z,12.60
2022-10-20T15:23:10.382Z,12.60
2022-10-20T15:25:48.261Z,12.50
2022-10-20T15:28:17.638Z,12.50
2022-10-20T15:30:44.266Z,12.50
2022-10-20T15:33:10.861Z,12.50
2022-10-20T15:35:40.923Z,12.50
2022-10-20T15:38:09.004Z,12.50
2022-10-20T15:40:35.886Z,12.50
2022-10-20T15:43:02.457Z,12.60
2022-10-20T15:45:35.041Z,12.50
2022-10-20T15:48:01.645Z,12.50
2022-10-20T15:50:28.635Z,12.40
2022-10-20T15:52:55.326Z,12.40
2022-10-20T15:55:27.471Z,12.30
2022-10-20T15:57:55.235Z,12.30
2022-10-20T16:00:24.178Z,12.20
2022-10-20T16:02:51.345Z,12.20
2022-10-20T16:05:20.596Z,12.10
2022-10-20T16:07:48.222Z,12.10
2022-10-20T16:10:14.818Z,12.00
2022-10-20T16:12:41.450Z,12.00
2022-10-20T16:15:09.328Z,12.00
2022-10-20T16:17:36.266Z,12.00
2022-10-20T16:20:04.776Z,12.00
2022-10-20T16:22:31.413Z,12.00
2022-10-20T16:25:01.192Z,12.00
2022-10-20T16:27:29.109Z,11.90
2022-10-20T16:29:55.818Z,12.00
2022-10-20T16:32:22.596Z,11.90
2022-10-20T16:34:49.440Z,11.90
2022-10-20T16:37:16.030Z,11.90
2022-10-20T16:39:42.693Z,11.90
2022-10-20T16:42:09.343Z,11.90
2022-10-20T16:44:35.933Z,11.90
2022-10-20T16:47:02.502Z,11.90
2022-10-20T16:49:29.093Z,11.90
2022-10-20T16:51:55.785Z,11.80
2022-10-20T16:54:22.358Z,11.80
2022-10-20T16:56:49.143Z,11.80
2022-10-20T16:59:15.971Z,11.80
2022-10-20T17:01:42.574Z,11.80
2022-10-20T17:04:11.453Z,11.70
2022-10-20T17:06:38.499Z,11.70
2022-10-20T17:09:05.327Z,11.70
2022-10-20T17:11:32.841Z,11.70
2022-10-20T17:13:59.918Z,11.70
2022-10-20T17:16:31.929Z,11.70
2022-10-20T17:18:59.949Z,11.70
2022-10-20T17:21:27.613Z,11.70
2022-10-20T17:23:54.259Z,11.70
2022-10-20T17:26:23.429Z,11.70
2022-10-20T17:28:50.585Z,11.70
2022-10-20T17:31:18.435Z,11.70
2022-10-20T17:33:46.253Z,11.70
2022-10-20T17:36:13.603Z,11.70
2022-10-20T17:38:43.669Z,11.80
2022-10-20T17:41:13.371Z,11.80
2022-10-20T17:43:40.755Z,11.80
2022-10-20T17:46:13.326Z,11.80
2022-10-20T17:48:40.485Z,11.90
2022-10-20T17:51:12.367Z,11.90
2022-10-20T17:53:40.881Z,12.00
2022-10-20T17:56:13.378Z,12.00
2022-10-20T17:58:42.176Z,12.00
2022-10-20T18:01:17.168Z,12.00
2022-10-20T18:03:45.275Z,12.00
2022-10-20T18:06:18.672Z,12.00
2022-10-20T18:08:46.533Z,12.10
2022-10-20T18:11:19.120Z,12.10
2022-10-20T18:13:46.467Z,12.10
2022-10-20T18:16:15.662Z,12.10
2022-10-20T18:18:42.618Z,12.10
2022-10-20T18:21:12.405Z,12.10
2022-10-20T18:23:41.308Z,12.10
2022-10-20T18:26:11.116Z,12.10
2022-10-20T18:28:43.092Z,12.10
2022-10-20T18:31:14.510Z,12.20
2022-10-20T18:33:44.422Z,12.20
2022-10-20T18:36:13.944Z,12.20
2022-10-20T18:38:43.024Z,12.20
2022-10-20T18:41:14.290Z,12.20
2022-10-20T18:43:41.566Z,12.20
2022-10-20T18:46:10.133Z,12.20
2022-10-20T18:48:39.239Z,12.20
2022-10-20T18:51:08.032Z,12.20
2022-10-20T18:53:37.245Z,12.20
2022-10-20T18:56:12.207Z,12.20
2022-10-20T18:58:40.346Z,12.20
2022-10-20T19:01:13.212Z,12.20
2022-10-20T19:03:41.149Z,12.20
2022-10-20T19:06:19.958Z,12.20
2022-10-20T19:08:52.760Z,12.20
2022-10-20T19:11:20.568Z,12.20
2022-10-20T19:13:47.326Z,12.10
2022-10-20T19:16:17.233Z,12.10
2022-10-20T19:18:46.218Z,12.20
2022-10-20T19:21:13.300Z,12.20
2022-10-20T19:23:50.317Z,12.20
2022-10-20T19:26:26.486Z,12.20
2022-10-20T19:29:02.867Z,12.20
2022-10-20T19:31:31.415Z,12.20
2022-10-20T19:34:11.012Z,12.10
2022-10-20T19:36:41.034Z,12.10
2022-10-20T19:39:10.446Z,12.10
2022-10-20T19:41:38.527Z,12.10
2022-10-20T19:44:05.286Z,12.10
2022-10-20T19:46:32.165Z,12.00
2022-10-20T19:48:59.257Z,11.90
2022-10-20T19:51:25.966Z,11.80
2022-10-20T19:53:52.616Z,11.80
2022-10-20T19:56:19.254Z,11.80
2022-10-20T19:58:46.797Z,11.70
2022-10-20T20:01:13.921Z,11.60
2022-10-20T20:03:40.998Z,11.60
2022-10-20T20:06:10.727Z,11.50
2022-10-20T20:08:37.976Z,11.50
2022-10-20T20:11:05.829Z,11.40
2022-10-20T20:13:32.554Z,11.30
2022-10-20T20:16:07.821Z,11.10
2022-10-20T20:18:35.721Z,11.00
2022-10-20T20:21:04.343Z,10.90
2022-10-20T20:23:41.147Z,10.70
2022-10-20T20:26:16.155Z,10.70
2022-10-20T20:28:42.942Z,10.60
2022-10-20T20:31:11.747Z,10.50
2022-10-20T20:33:38.514Z,10.50
2022-10-20T20:36:07.883Z,10.50
2022-10-20T20:38:36.720Z,10.50
2022-10-20T20:41:10.237Z,10.50
2022-10-20T20:43:37.546Z,10.50
2022-10-20T20:46:10.657Z,10.50
2022-10-20T20:48:37.986Z,10.50
2022-10-20T20:51:05.282Z,10.50
2022-10-20T20:56:09.683Z,10.50
2022-10-20T20:58:36.720Z,10.50
2022-10-20T21:01:11.020Z,10.60
2022-10-20T21:03:37.770Z,10.60
2022-10-20T21:06:09.859Z,10.50
2022-10-20T21:08:38.050Z,10.40
2022-10-20T21:11:09.970Z,10.50
2022-10-20T21:13:37.470Z,10.50
2022-10-20T21:16:09.452Z,10.40
2022-10-20T21:18:36.092Z,10.40
2022-10-20T21:21:17.355Z,10.40
2022-10-20T21:23:44.444Z,10.40
2022-10-20T21:26:12.453Z,10.40
2022-10-20T21:28:39.355Z,10.40
2022-10-20T21:31:07.859Z,10.50
2022-10-20T21:33:35.550Z,10.50
2022-10-20T21:36:03.834Z,10.40
2022-10-20T21:38:32.344Z,10.50
2022-10-20T21:41:06.678Z,10.50
2022-10-20T21:43:34.939Z,10.40
2022-10-20T21:46:13.308Z,10.40
2022-10-20T21:48:40.883Z,10.40
2022-10-20T21:51:16.469Z,10.40
2022-10-20T21:53:43.422Z,10.40
2022-10-20T21:56:10.322Z,10.40
2022-10-20T21:58:37.753Z,10.30
2022-10-20T22:01:15.758Z,10.30
2022-10-20T22:03:43.502Z,10.30
2022-10-20T22:06:12.282Z,10.30
2022-10-20T22:08:41.587Z,10.30
2022-10-20T22:11:17.619Z,10.30
2022-10-20T22:13:44.250Z,10.20
2022-10-20T22:16:14.551Z,10.20
2022-10-20T22:18:41.461Z,10.20
2022-10-20T22:21:13.404Z,10.20
2022-10-20T22:23:41.525Z,10.20
2022-10-20T22:26:08.313Z,10.20
2022-10-20T22:28:35.010Z,10.20
2022-10-20T22:33:33.370Z,10.20
2022-10-20T22:35:59.977Z,10.20
2022-10-20T22:38:26.706Z,10.30
2022-10-20T22:41:01.097Z,10.30
2022-10-20T22:43:29.125Z,10.40
2022-10-20T22:45:55.863Z,10.40
2022-10-20T22:48:22.578Z,10.40
2022-10-20T22:50:49.509Z,10.40
2022-10-20T22:53:16.200Z,10.40
2022-10-20T22:55:42.894Z,10.30
2022-10-20T22:58:09.514Z,10.30
2022-10-20T23:00:39.232Z,10.30
2022-10-20T23:03:05.948Z,10.30
2022-10-20T23:05:32.646Z,10.30
2022-10-20T23:07:59.264Z,10.30
2022-10-20T23:10:25.812Z,10.20
2022-10-20T23:12:52.356Z,10.20
2022-10-20T23:15:18.932Z,10.30
2022-10-20T23:17:46.361Z,10.30
2022-10-20T23:20:13.060Z,10.40
2022-10-20T23:22:39.714Z,10.30
2022-10-20T23:25:06.798Z,10.30
2022-10-20T23:27:34.998Z,10.30
2022-10-20T23:30:02.046Z,10.30
2022-10-20T23:32:28.695Z,10.30
2022-10-20T23:34:55.331Z,10.30
2022-10-20T23:37:23.550Z,10.40
2022-10-20T23:39:50.157Z,10.40
2022-10-20T23:42:17.349Z,10.30
2022-10-20T23:44:44.116Z,10.30
2022-10-20T23:47:10.738Z,10.30
2022-10-20T23:49:37.382Z,10.30
2022-10-20T23:52:04.063Z,10.30
2022-10-20T23:54:30.644Z,10.30
2022-10-20T23:56:57.470Z,10.30
2022-10-20T23:59:24.140Z,10.30
